sensor_id;sensor_type;location;lat;lon;timestamp;P1;durP1;ratioP1;P2;durP2;ratioP2
6937;SDS011;40040;42.706;23.372;2023-10-31T00:02:14;12.32;;;7.47;;
6937;SDS011;40040;42.706;23.372;2023-10-31T00:04:41;13.38;;;6.60;;
6937;SDS011;40040;42.706;23.372;2023-10-31T00:07:08;9.35;;;6.78;;
6937;SDS011;40040;42.706;23.372;2023-10-31T00:09:35;13.60;;;6.90;;
6937;SDS011;40040;42.706;23.372;2023-10-31T00:12:01;11.75;;;7.32;;
6937;SDS011;40040;42.706;23.372;2023-10-31T00:14:28;18.50;;;8.00;;
6937;SDS011;40040;42.706;23.372;2023-10-31T00:16:55;12.07;;;7.05;;
6937;SDS011;40040;42.706;23.372;2023-10-31T00:19:23;11.95;;;7.40;;
6937;SDS011;40040;42.706;23.372;2023-10-31T00:21:50;11.30;;;7.47;;
6937;SDS011;40040;42.706;23.372;2023-10-31T00:24:17;14.48;;;7.72;;
6937;SDS011;40040;42.706;23.372;2023-10-31T00:26:44;12.30;;;7.22;;
6937;SDS011;40040;42.706;23.372;2023-10-31T00:29:11;11.50;;;7.57;;
6937;SDS011;40040;42.706;23.372;2023-10-31T00:31:38;16.13;;;8.30;;
6937;SDS011;40040;42.706;23.372;2023-10-31T00:34:06;11.77;;;7.28;;
6937;SDS011;40040;42.706;23.372;2023-10-31T00:36:34;13.32;;;8.25;;
6937;SDS011;40040;42.706;23.372;2023-10-31T00:39:01;13.23;;;7.85;;
6937;SDS011;40040;42.706;23.372;2023-10-31T00:41:28;12.85;;;8.15;;
6937;SDS011;40040;42.706;23.372;2023-10-31T00:43:55;13.68;;;8.43;;
6937;SDS011;40040;42.706;23.372;2023-10-31T00:46:21;11.45;;;7.35;;
6937;SDS011;40040;42.706;23.372;2023-10-31T00:48:48;12.98;;;7.72;;
6937;SDS011;40040;42.706;23.372;2023-10-31T00:51:15;11.15;;;7.45;;
6937;SDS011;40040;42.706;23.372;2023-10-31T00:53:43;13.20;;;7.78;;
6937;SDS011;40040;42.706;23.372;2023-10-31T00:56:10;12.50;;;7.30;;
6937;SDS011;40040;42.706;23.372;2023-10-31T00:58:37;10.32;;;7.40;;
6937;SDS011;40040;42.706;23.372;2023-10-31T01:01:03;13.32;;;7.25;;
6937;SDS011;40040;42.706;23.372;2023-10-31T01:03:30;11.73;;;7.00;;
6937;SDS011;40040;42.706;23.372;2023-10-31T01:05:57;11.02;;;7.13;;
6937;SDS011;40040;42.706;23.372;2023-10-31T01:08:24;10.95;;;7.00;;
6937;SDS011;40040;42.706;23.372;2023-10-31T01:10:52;10.65;;;7.63;;
6937;SDS011;40040;42.706;23.372;2023-10-31T01:13:19;11.20;;;7.32;;
6937;SDS011;40040;42.706;23.372;2023-10-31T01:15:46;12.82;;;6.82;;
6937;SDS011;40040;42.706;23.372;2023-10-31T01:18:13;13.15;;;7.18;;
6937;SDS011;40040;42.706;23.372;2023-10-31T01:20:40;13.45;;;7.20;;
6937;SDS011;40040;42.706;23.372;2023-10-31T01:23:07;12.82;;;7.47;;
6937;SDS011;40040;42.706;23.372;2023-10-31T01:25:33;13.48;;;7.00;;
6937;SDS011;40040;42.706;23.372;2023-10-31T01:28:02;11.10;;;6.82;;
6937;SDS011;40040;42.706;23.372;2023-10-31T01:30:29;11.77;;;7.25;;
6937;SDS011;40040;42.706;23.372;2023-10-31T01:32:55;14.98;;;7.95;;
6937;SDS011;40040;42.706;23.372;2023-10-31T01:35:22;14.35;;;7.07;;
6937;SDS011;40040;42.706;23.372;2023-10-31T01:37:49;9.90;;;7.28;;
6937;SDS011;40040;42.706;23.372;2023-10-31T01:40:16;14.98;;;7.55;;
6937;SDS011;40040;42.706;23.372;2023-10-31T01:42:43;15.05;;;7.75;;
6937;SDS011;40040;42.706;23.372;2023-10-31T01:45:11;12.38;;;7.65;;
6937;SDS011;40040;42.706;23.372;2023-10-31T01:47:37;14.80;;;7.78;;
6937;SDS011;40040;42.706;23.372;2023-10-31T01:50:05;14.40;;;8.48;;
6937;SDS011;40040;42.706;23.372;2023-10-31T01:52:34;12.75;;;7.82;;
6937;SDS011;40040;42.706;23.372;2023-10-31T01:55:03;10.05;;;7.88;;
6937;SDS011;40040;42.706;23.372;2023-10-31T01:57:31;14.52;;;7.97;;
6937;SDS011;40040;42.706;23.372;2023-10-31T01:59:58;13.57;;;7.75;;
6937;SDS011;40040;42.706;23.372;2023-10-31T02:02:27;11.40;;;7.25;;
6937;SDS011;40040;42.706;23.372;2023-10-31T02:04:57;12.13;;;7.70;;
6937;SDS011;40040;42.706;23.372;2023-10-31T02:07:24;11.93;;;7.10;;
6937;SDS011;40040;42.706;23.372;2023-10-31T02:09:50;12.70;;;7.47;;
6937;SDS011;40040;42.706;23.372;2023-10-31T02:12:33;11.93;;;7.22;;
6937;SDS011;40040;42.706;23.372;2023-10-31T02:15:00;11.50;;;6.72;;
6937;SDS011;40040;42.706;23.372;2023-10-31T02:17:28;11.35;;;7.50;;
6937;SDS011;40040;42.706;23.372;2023-10-31T02:19:55;10.32;;;6.78;;
6937;SDS011;40040;42.706;23.372;2023-10-31T02:22:23;12.90;;;7.15;;
6937;SDS011;40040;42.706;23.372;2023-10-31T02:24:50;13.13;;;8.18;;
6937;SDS011;40040;42.706;23.372;2023-10-31T02:27:17;15.88;;;8.20;;
6937;SDS011;40040;42.706;23.372;2023-10-31T02:29:44;11.98;;;8.00;;
6937;SDS011;40040;42.706;23.372;2023-10-31T02:32:11;12.60;;;7.97;;
6937;SDS011;40040;42.706;23.372;2023-10-31T02:34:37;10.95;;;8.02;;
6937;SDS011;40040;42.706;23.372;2023-10-31T02:37:04;13.60;;;8.07;;
6937;SDS011;40040;42.706;23.372;2023-10-31T02:39:33;13.18;;;8.35;;
6937;SDS011;40040;42.706;23.372;2023-10-31T02:41:59;13.50;;;9.23;;
6937;SDS011;40040;42.706;23.372;2023-10-31T02:44:26;10.65;;;8.00;;
6937;SDS011;40040;42.706;23.372;2023-10-31T02:46:53;11.65;;;8.52;;
6937;SDS011;40040;42.706;23.372;2023-10-31T02:49:20;15.27;;;8.25;;
6937;SDS011;40040;42.706;23.372;2023-10-31T02:51:47;13.02;;;8.55;;
6937;SDS011;40040;42.706;23.372;2023-10-31T02:54:14;14.23;;;9.07;;
6937;SDS011;40040;42.706;23.372;2023-10-31T02:56:42;14.90;;;8.55;;
6937;SDS011;40040;42.706;23.372;2023-10-31T02:59:09;19.42;;;8.52;;
6937;SDS011;40040;42.706;23.372;2023-10-31T03:01:35;12.00;;;7.95;;
6937;SDS011;40040;42.706;23.372;2023-10-31T03:04:02;11.35;;;7.82;;
6937;SDS011;40040;42.706;23.372;2023-10-31T03:06:29;13.75;;;7.97;;
6937;SDS011;40040;42.706;23.372;2023-10-31T03:08:56;13.10;;;8.05;;
6937;SDS011;40040;42.706;23.372;2023-10-31T03:11:23;11.05;;;8.18;;
6937;SDS011;40040;42.706;23.372;2023-10-31T03:13:52;11.65;;;7.85;;
6937;SDS011;40040;42.706;23.372;2023-10-31T03:16:19;13.60;;;6.95;;
6937;SDS011;40040;42.706;23.372;2023-10-31T03:18:46;11.32;;;7.28;;
6937;SDS011;40040;42.706;23.372;2023-10-31T03:21:13;10.38;;;6.53;;
6937;SDS011;40040;42.706;23.372;2023-10-31T03:23:40;10.60;;;6.95;;
6937;SDS011;40040;42.706;23.372;2023-10-31T03:26:07;10.88;;;6.50;;
6937;SDS011;40040;42.706;23.372;2023-10-31T03:28:34;11.88;;;7.00;;
6937;SDS011;40040;42.706;23.372;2023-10-31T03:31:02;13.00;;;6.88;;
6937;SDS011;40040;42.706;23.372;2023-10-31T03:33:29;10.63;;;7.05;;
6937;SDS011;40040;42.706;23.372;2023-10-31T03:35:57;11.70;;;7.22;;
6937;SDS011;40040;42.706;23.372;2023-10-31T03:38:23;13.85;;;6.88;;
6937;SDS011;40040;42.706;23.372;2023-10-31T03:40:50;10.70;;;7.10;;
6937;SDS011;40040;42.706;23.372;2023-10-31T03:43:18;11.52;;;7.03;;
6937;SDS011;40040;42.706;23.372;2023-10-31T03:45:45;11.90;;;7.28;;
6937;SDS011;40040;42.706;23.372;2023-10-31T03:48:13;11.20;;;7.35;;
6937;SDS011;40040;42.706;23.372;2023-10-31T03:50:42;10.93;;;7.35;;
6937;SDS011;40040;42.706;23.372;2023-10-31T03:53:08;11.38;;;7.43;;
6937;SDS011;40040;42.706;23.372;2023-10-31T03:55:35;12.95;;;8.05;;
6937;SDS011;40040;42.706;23.372;2023-10-31T03:58:02;10.75;;;7.40;;
6937;SDS011;40040;42.706;23.372;2023-10-31T04:00:29;11.75;;;7.07;;
6937;SDS011;40040;42.706;23.372;2023-10-31T04:02:55;14.00;;;7.20;;
6937;SDS011;40040;42.706;23.372;2023-10-31T04:05:23;10.82;;;7.00;;
6937;SDS011;40040;42.706;23.372;2023-10-31T04:07:50;12.35;;;7.60;;
6937;SDS011;40040;42.706;23.372;2023-10-31T04:10:17;14.60;;;7.22;;
6937;SDS011;40040;42.706;23.372;2023-10-31T04:12:44;11.50;;;7.13;;
6937;SDS011;40040;42.706;23.372;2023-10-31T04:15:11;11.68;;;7.97;;
6937;SDS011;40040;42.706;23.372;2023-10-31T04:17:38;12.80;;;7.47;;
6937;SDS011;40040;42.706;23.372;2023-10-31T04:20:05;11.45;;;7.00;;
6937;SDS011;40040;42.706;23.372;2023-10-31T04:22:34;10.98;;;7.28;;
6937;SDS011;40040;42.706;23.372;2023-10-31T04:25:01;10.55;;;7.07;;
6937;SDS011;40040;42.706;23.372;2023-10-31T04:27:28;11.70;;;7.45;;
6937;SDS011;40040;42.706;23.372;2023-10-31T04:29:55;13.35;;;7.03;;
6937;SDS011;40040;42.706;23.372;2023-10-31T04:32:21;15.60;;;8.15;;
6937;SDS011;40040;42.706;23.372;2023-10-31T04:34:48;12.50;;;7.88;;
6937;SDS011;40040;42.706;23.372;2023-10-31T04:37:15;11.48;;;8.02;;
6937;SDS011;40040;42.706;23.372;2023-10-31T04:39:43;11.07;;;7.60;;
6937;SDS011;40040;42.706;23.372;2023-10-31T04:42:10;11.27;;;8.25;;
6937;SDS011;40040;42.706;23.372;2023-10-31T04:44:37;11.18;;;7.45;;
6937;SDS011;40040;42.706;23.372;2023-10-31T04:47:04;9.52;;;7.07;;
6937;SDS011;40040;42.706;23.372;2023-10-31T04:49:33;10.95;;;7.40;;
6937;SDS011;40040;42.706;23.372;2023-10-31T04:52:01;14.63;;;7.82;;
6937;SDS011;40040;42.706;23.372;2023-10-31T04:54:27;14.25;;;9.82;;
6937;SDS011;40040;42.706;23.372;2023-10-31T04:56:56;11.95;;;8.10;;
6937;SDS011;40040;42.706;23.372;2023-10-31T04:59:22;12.73;;;7.88;;
6937;SDS011;40040;42.706;23.372;2023-10-31T05:01:49;14.15;;;7.60;;
6937;SDS011;40040;42.706;23.372;2023-10-31T05:04:17;12.18;;;8.02;;
6937;SDS011;40040;42.706;23.372;2023-10-31T05:06:44;16.15;;;7.68;;
6937;SDS011;40040;42.706;23.372;2023-10-31T05:09:11;14.57;;;8.43;;
6937;SDS011;40040;42.706;23.372;2023-10-31T05:11:38;21.50;;;8.82;;
6937;SDS011;40040;42.706;23.372;2023-10-31T05:14:07;12.40;;;8.43;;
6937;SDS011;40040;42.706;23.372;2023-10-31T05:16:38;16.77;;;8.60;;
6937;SDS011;40040;42.706;23.372;2023-10-31T05:19:06;12.65;;;8.30;;
6937;SDS011;40040;42.706;23.372;2023-10-31T05:21:33;16.17;;;9.40;;
6937;SDS011;40040;42.706;23.372;2023-10-31T05:23:59;13.80;;;8.80;;
6937;SDS011;40040;42.706;23.372;2023-10-31T05:26:26;18.55;;;9.73;;
6937;SDS011;40040;42.706;23.372;2023-10-31T05:28:54;14.80;;;8.95;;
6937;SDS011;40040;42.706;23.372;2023-10-31T05:31:22;15.85;;;8.38;;
6937;SDS011;40040;42.706;23.372;2023-10-31T05:33:49;15.10;;;8.25;;
6937;SDS011;40040;42.706;23.372;2023-10-31T05:36:17;11.10;;;7.38;;
6937;SDS011;40040;42.706;23.372;2023-10-31T05:38:45;13.20;;;7.97;;
6937;SDS011;40040;42.706;23.372;2023-10-31T05:41:12;13.45;;;7.90;;
6937;SDS011;40040;42.706;23.372;2023-10-31T05:43:39;16.83;;;7.95;;
6937;SDS011;40040;42.706;23.372;2023-10-31T05:46:06;14.73;;;8.63;;
6937;SDS011;40040;42.706;23.372;2023-10-31T05:48:37;12.18;;;8.18;;
6937;SDS011;40040;42.706;23.372;2023-10-31T05:51:04;12.50;;;7.78;;
6937;SDS011;40040;42.706;23.372;2023-10-31T05:53:36;13.53;;;7.97;;
6937;SDS011;40040;42.706;23.372;2023-10-31T05:56:03;13.50;;;8.27;;
6937;SDS011;40040;42.706;23.372;2023-10-31T05:58:32;17.33;;;10.10;;
6937;SDS011;40040;42.706;23.372;2023-10-31T06:00:59;13.20;;;8.57;;
6937;SDS011;40040;42.706;23.372;2023-10-31T06:03:26;18.17;;;8.98;;
6937;SDS011;40040;42.706;23.372;2023-10-31T06:05:54;16.08;;;9.02;;
6937;SDS011;40040;42.706;23.372;2023-10-31T06:08:20;14.52;;;9.50;;
6937;SDS011;40040;42.706;23.372;2023-10-31T06:10:49;18.50;;;9.73;;
6937;SDS011;40040;42.706;23.372;2023-10-31T06:13:16;22.50;;;12.02;;
6937;SDS011;40040;42.706;23.372;2023-10-31T06:15:42;13.82;;;9.02;;
6937;SDS011;40040;42.706;23.372;2023-10-31T06:18:09;19.00;;;10.48;;
6937;SDS011;40040;42.706;23.372;2023-10-31T06:20:36;21.02;;;11.23;;
6937;SDS011;40040;42.706;23.372;2023-10-31T06:23:06;25.77;;;11.50;;
6937;SDS011;40040;42.706;23.372;2023-10-31T06:25:33;30.23;;;12.15;;
6937;SDS011;40040;42.706;23.372;2023-10-31T06:27:59;24.17;;;11.85;;
6937;SDS011;40040;42.706;23.372;2023-10-31T06:30:26;23.48;;;11.60;;
6937;SDS011;40040;42.706;23.372;2023-10-31T06:32:53;26.75;;;12.93;;
6937;SDS011;40040;42.706;23.372;2023-10-31T06:35:20;29.25;;;12.50;;
6937;SDS011;40040;42.706;23.372;2023-10-31T06:37:47;24.13;;;12.20;;
6937;SDS011;40040;42.706;23.372;2023-10-31T06:40:15;27.38;;;12.10;;
6937;SDS011;40040;42.706;23.372;2023-10-31T06:42:42;24.83;;;12.75;;
6937;SDS011;40040;42.706;23.372;2023-10-31T06:45:09;48.00;;;28.25;;
6937;SDS011;40040;42.706;23.372;2023-10-31T06:47:36;27.55;;;13.68;;
6937;SDS011;40040;42.706;23.372;2023-10-31T06:50:02;25.55;;;11.98;;
6937;SDS011;40040;42.706;23.372;2023-10-31T06:52:30;24.38;;;13.57;;
6937;SDS011;40040;42.706;23.372;2023-10-31T06:54:57;27.48;;;14.65;;
6937;SDS011;40040;42.706;23.372;2023-10-31T06:57:25;28.42;;;16.50;;
6937;SDS011;40040;42.706;23.372;2023-10-31T06:59:51;31.63;;;16.65;;
6937;SDS011;40040;42.706;23.372;2023-10-31T07:02:18;30.45;;;15.88;;
6937;SDS011;40040;42.706;23.372;2023-10-31T07:04:45;29.60;;;15.50;;
6937;SDS011;40040;42.706;23.372;2023-10-31T07:07:12;30.58;;;16.73;;
6937;SDS011;40040;42.706;23.372;2023-10-31T07:09:39;27.23;;;16.05;;
6937;SDS011;40040;42.706;23.372;2023-10-31T07:12:06;26.75;;;15.68;;
6937;SDS011;40040;42.706;23.372;2023-10-31T07:14:34;30.80;;;18.30;;
6937;SDS011;40040;42.706;23.372;2023-10-31T07:17:01;28.10;;;15.48;;
6937;SDS011;40040;42.706;23.372;2023-10-31T07:19:28;30.77;;;16.40;;
6937;SDS011;40040;42.706;23.372;2023-10-31T07:21:55;24.52;;;14.57;;
6937;SDS011;40040;42.706;23.372;2023-10-31T07:24:21;29.38;;;15.45;;
6937;SDS011;40040;42.706;23.372;2023-10-31T07:26:48;23.00;;;14.55;;
6937;SDS011;40040;42.706;23.372;2023-10-31T07:29:14;27.55;;;15.10;;
6937;SDS011;40040;42.706;23.372;2023-10-31T07:31:42;22.30;;;13.43;;
6937;SDS011;40040;42.706;23.372;2023-10-31T07:34:09;15.93;;;10.25;;
6937;SDS011;40040;42.706;23.372;2023-10-31T07:36:36;16.92;;;11.15;;
6937;SDS011;40040;42.706;23.372;2023-10-31T07:39:04;18.95;;;11.80;;
6937;SDS011;40040;42.706;23.372;2023-10-31T07:41:31;19.80;;;10.68;;
6937;SDS011;40040;42.706;23.372;2023-10-31T07:43:58;15.18;;;10.90;;
6937;SDS011;40040;42.706;23.372;2023-10-31T07:46:25;15.65;;;10.63;;
6937;SDS011;40040;42.706;23.372;2023-10-31T07:48:53;18.77;;;10.90;;
6937;SDS011;40040;42.706;23.372;2023-10-31T07:51:19;14.38;;;10.73;;
6937;SDS011;40040;42.706;23.372;2023-10-31T07:53:46;21.55;;;11.38;;
6937;SDS011;40040;42.706;23.372;2023-10-31T07:56:16;15.93;;;10.13;;
6937;SDS011;40040;42.706;23.372;2023-10-31T07:58:48;20.48;;;11.60;;
6937;SDS011;40040;42.706;23.372;2023-10-31T08:01:15;14.18;;;10.48;;
6937;SDS011;40040;42.706;23.372;2023-10-31T08:03:43;16.50;;;10.30;;
6937;SDS011;40040;42.706;23.372;2023-10-31T08:06:11;20.15;;;11.23;;
6937;SDS011;40040;42.706;23.372;2023-10-31T08:08:38;19.08;;;10.90;;
6937;SDS011;40040;42.706;23.372;2023-10-31T08:11:06;21.20;;;10.65;;
6937;SDS011;40040;42.706;23.372;2023-10-31T08:13:34;18.50;;;10.30;;
6937;SDS011;40040;42.706;23.372;2023-10-31T08:16:02;12.13;;;9.45;;
6937;SDS011;40040;42.706;23.372;2023-10-31T08:18:29;17.55;;;9.82;;
6937;SDS011;40040;42.706;23.372;2023-10-31T08:20:56;12.35;;;9.32;;
6937;SDS011;40040;42.706;23.372;2023-10-31T08:23:24;15.40;;;9.32;;
6937;SDS011;40040;42.706;23.372;2023-10-31T08:25:51;14.23;;;10.38;;
6937;SDS011;40040;42.706;23.372;2023-10-31T08:28:18;14.25;;;11.45;;
6937;SDS011;40040;42.706;23.372;2023-10-31T08:30:45;17.58;;;11.63;;
6937;SDS011;40040;42.706;23.372;2023-10-31T08:33:12;14.75;;;9.82;;
6937;SDS011;40040;42.706;23.372;2023-10-31T08:35:39;17.38;;;10.10;;
6937;SDS011;40040;42.706;23.372;2023-10-31T08:38:06;10.38;;;8.90;;
6937;SDS011;40040;42.706;23.372;2023-10-31T08:40:34;13.30;;;9.68;;
6937;SDS011;40040;42.706;23.372;2023-10-31T08:43:01;12.70;;;9.63;;
6937;SDS011;40040;42.706;23.372;2023-10-31T08:45:29;15.38;;;10.00;;
6937;SDS011;40040;42.706;23.372;2023-10-31T08:47:56;15.02;;;10.02;;
6937;SDS011;40040;42.706;23.372;2023-10-31T08:50:23;11.98;;;8.88;;
6937;SDS011;40040;42.706;23.372;2023-10-31T08:52:49;11.90;;;8.82;;
6937;SDS011;40040;42.706;23.372;2023-10-31T08:55:16;12.38;;;7.90;;
6937;SDS011;40040;42.706;23.372;2023-10-31T08:57:45;10.90;;;7.53;;
6937;SDS011;40040;42.706;23.372;2023-10-31T09:00:12;11.77;;;7.53;;
6937;SDS011;40040;42.706;23.372;2023-10-31T09:02:39;17.15;;;8.35;;
6937;SDS011;40040;42.706;23.372;2023-10-31T09:05:06;10.80;;;8.30;;
6937;SDS011;40040;42.706;23.372;2023-10-31T09:07:33;9.48;;;7.55;;
6937;SDS011;40040;42.706;23.372;2023-10-31T09:10:00;12.35;;;8.25;;
6937;SDS011;40040;42.706;23.372;2023-10-31T09:12:28;12.55;;;8.40;;
6937;SDS011;40040;42.706;23.372;2023-10-31T09:14:56;13.02;;;8.90;;
6937;SDS011;40040;42.706;23.372;2023-10-31T09:17:23;15.25;;;9.77;;
6937;SDS011;40040;42.706;23.372;2023-10-31T09:19:50;15.27;;;9.90;;
6937;SDS011;40040;42.706;23.372;2023-10-31T09:22:17;11.80;;;8.88;;
6937;SDS011;40040;42.706;23.372;2023-10-31T09:24:44;13.25;;;9.10;;
6937;SDS011;40040;42.706;23.372;2023-10-31T09:27:10;15.07;;;9.65;;
6937;SDS011;40040;42.706;23.372;2023-10-31T09:29:37;12.38;;;9.50;;
6937;SDS011;40040;42.706;23.372;2023-10-31T09:32:06;14.52;;;9.93;;
6937;SDS011;40040;42.706;23.372;2023-10-31T09:34:33;12.82;;;9.43;;
6937;SDS011;40040;42.706;23.372;2023-10-31T09:37:00;12.25;;;8.85;;
6937;SDS011;40040;42.706;23.372;2023-10-31T09:39:27;11.77;;;8.90;;
6937;SDS011;40040;42.706;23.372;2023-10-31T09:41:54;12.40;;;9.27;;
6937;SDS011;40040;42.706;23.372;2023-10-31T09:44:21;14.07;;;9.18;;
6937;SDS011;40040;42.706;23.372;2023-10-31T09:46:48;14.20;;;8.93;;
6937;SDS011;40040;42.706;23.372;2023-10-31T09:49:17;11.40;;;8.68;;
6937;SDS011;40040;42.706;23.372;2023-10-31T09:51:45;13.05;;;9.07;;
6937;SDS011;40040;42.706;23.372;2023-10-31T09:54:14;12.02;;;8.60;;
6937;SDS011;40040;42.706;23.372;2023-10-31T09:56:43;11.27;;;8.45;;
6937;SDS011;40040;42.706;23.372;2023-10-31T09:59:10;12.30;;;8.32;;
6937;SDS011;40040;42.706;23.372;2023-10-31T10:01:36;13.93;;;8.25;;
6937;SDS011;40040;42.706;23.372;2023-10-31T10:04:03;13.32;;;7.38;;
6937;SDS011;40040;42.706;23.372;2023-10-31T10:06:33;13.15;;;7.28;;
6937;SDS011;40040;42.706;23.372;2023-10-31T10:09:00;10.63;;;7.57;;
6937;SDS011;40040;42.706;23.372;2023-10-31T10:11:30;10.90;;;7.07;;
6937;SDS011;40040;42.706;23.372;2023-10-31T10:13:58;8.73;;;6.85;;
6937;SDS011;40040;42.706;23.372;2023-10-31T10:16:28;9.02;;;6.25;;
6937;SDS011;40040;42.706;23.372;2023-10-31T10:18:56;9.48;;;6.05;;
6937;SDS011;40040;42.706;23.372;2023-10-31T10:21:23;7.30;;;6.55;;
6937;SDS011;40040;42.706;23.372;2023-10-31T10:23:52;7.57;;;6.47;;
6937;SDS011;40040;42.706;23.372;2023-10-31T10:26:19;11.10;;;6.82;;
6937;SDS011;40040;42.706;23.372;2023-10-31T10:28:50;8.95;;;6.45;;
6937;SDS011;40040;42.706;23.372;2023-10-31T10:31:18;7.57;;;6.00;;
6937;SDS011;40040;42.706;23.372;2023-10-31T10:33:45;6.55;;;5.88;;
6937;SDS011;40040;42.706;23.372;2023-10-31T10:36:12;5.60;;;5.10;;
6937;SDS011;40040;42.706;23.372;2023-10-31T10:38:41;5.80;;;5.18;;
6937;SDS011;40040;42.706;23.372;2023-10-31T10:41:14;5.72;;;4.75;;
6937;SDS011;40040;42.706;23.372;2023-10-31T10:43:46;8.13;;;5.20;;
6937;SDS011;40040;42.706;23.372;2023-10-31T10:46:15;7.40;;;4.90;;
6937;SDS011;40040;42.706;23.372;2023-10-31T10:48:47;6.68;;;4.78;;
6937;SDS011;40040;42.706;23.372;2023-10-31T10:51:18;5.90;;;4.60;;
6937;SDS011;40040;42.706;23.372;2023-10-31T10:53:51;5.45;;;4.60;;
6937;SDS011;40040;42.706;23.372;2023-10-31T10:56:28;6.40;;;4.10;;
6937;SDS011;40040;42.706;23.372;2023-10-31T10:59:03;5.82;;;4.63;;
6937;SDS011;40040;42.706;23.372;2023-10-31T11:01:40;4.82;;;3.85;;
6937;SDS011;40040;42.706;23.372;2023-10-31T11:04:08;6.20;;;3.83;;
6937;SDS011;40040;42.706;23.372;2023-10-31T11:06:36;5.40;;;3.67;;
6937;SDS011;40040;42.706;23.372;2023-10-31T11:09:03;5.30;;;3.60;;
6937;SDS011;40040;42.706;23.372;2023-10-31T11:11:33;4.00;;;3.70;;
6937;SDS011;40040;42.706;23.372;2023-10-31T11:14:00;4.50;;;3.90;;
6937;SDS011;40040;42.706;23.372;2023-10-31T11:16:29;4.15;;;3.63;;
6937;SDS011;40040;42.706;23.372;2023-10-31T11:19:01;5.32;;;4.25;;
6937;SDS011;40040;42.706;23.372;2023-10-31T11:21:29;4.35;;;4.05;;
6937;SDS011;40040;42.706;23.372;2023-10-31T11:23:58;9.98;;;4.10;;
6937;SDS011;40040;42.706;23.372;2023-10-31T11:26:26;4.70;;;3.90;;
6937;SDS011;40040;42.706;23.372;2023-10-31T11:29:03;4.63;;;3.88;;
6937;SDS011;40040;42.706;23.372;2023-10-31T11:31:31;4.50;;;4.15;;
6937;SDS011;40040;42.706;23.372;2023-10-31T11:34:00;4.32;;;3.92;;
6937;SDS011;40040;42.706;23.372;2023-10-31T11:36:29;5.45;;;4.00;;
6937;SDS011;40040;42.706;23.372;2023-10-31T11:39:09;5.07;;;4.20;;
6937;SDS011;40040;42.706;23.372;2023-10-31T11:41:38;6.32;;;4.50;;
6937;SDS011;40040;42.706;23.372;2023-10-31T11:44:06;6.53;;;4.07;;
6937;SDS011;40040;42.706;23.372;2023-10-31T11:46:33;5.47;;;4.35;;
6937;SDS011;40040;42.706;23.372;2023-10-31T11:49:01;4.90;;;3.97;;
6937;SDS011;40040;42.706;23.372;2023-10-31T11:51:30;4.53;;;4.13;;
6937;SDS011;40040;42.706;23.372;2023-10-31T11:53:57;4.10;;;3.80;;
6937;SDS011;40040;42.706;23.372;2023-10-31T11:56:25;5.80;;;4.00;;
6937;SDS011;40040;42.706;23.372;2023-10-31T11:58:56;4.88;;;4.10;;
6937;SDS011;40040;42.706;23.372;2023-10-31T12:01:25;5.25;;;3.67;;
6937;SDS011;40040;42.706;23.372;2023-10-31T12:03:52;5.88;;;4.00;;
6937;SDS011;40040;42.706;23.372;2023-10-31T12:06:18;4.50;;;4.10;;
6937;SDS011;40040;42.706;23.372;2023-10-31T12:08:46;5.97;;;4.18;;
6937;SDS011;40040;42.706;23.372;2023-10-31T12:11:15;7.18;;;4.10;;
6937;SDS011;40040;42.706;23.372;2023-10-31T12:13:51;4.10;;;3.80;;
6937;SDS011;40040;42.706;23.372;2023-10-31T12:16:22;5.97;;;3.88;;
6937;SDS011;40040;42.706;23.372;2023-10-31T12:18:56;5.10;;;3.75;;
6937;SDS011;40040;42.706;23.372;2023-10-31T12:21:36;4.05;;;3.67;;
6937;SDS011;40040;42.706;23.372;2023-10-31T12:24:09;4.55;;;4.05;;
6937;SDS011;40040;42.706;23.372;2023-10-31T12:26:38;8.25;;;6.97;;
6937;SDS011;40040;42.706;23.372;2023-10-31T12:29:06;7.72;;;5.57;;
6937;SDS011;40040;42.706;23.372;2023-10-31T12:31:43;4.07;;;3.78;;
6937;SDS011;40040;42.706;23.372;2023-10-31T12:34:11;7.30;;;4.22;;
6937;SDS011;40040;42.706;23.372;2023-10-31T12:36:39;4.72;;;4.15;;
6937;SDS011;40040;42.706;23.372;2023-10-31T12:39:07;4.68;;;4.20;;
6937;SDS011;40040;42.706;23.372;2023-10-31T12:41:36;5.40;;;4.22;;
6937;SDS011;40040;42.706;23.372;2023-10-31T12:44:03;4.32;;;4.03;;
6937;SDS011;40040;42.706;23.372;2023-10-31T12:46:31;4.53;;;4.10;;
6937;SDS011;40040;42.706;23.372;2023-10-31T12:49:01;4.50;;;4.10;;
6937;SDS011;40040;42.706;23.372;2023-10-31T12:51:28;4.88;;;4.45;;
6937;SDS011;40040;42.706;23.372;2023-10-31T12:53:55;5.20;;;4.32;;
6937;SDS011;40040;42.706;23.372;2023-10-31T12:56:37;5.03;;;3.85;;
6937;SDS011;40040;42.706;23.372;2023-10-31T12:59:05;9.13;;;4.53;;
6937;SDS011;40040;42.706;23.372;2023-10-31T13:01:34;4.95;;;4.45;;
6937;SDS011;40040;42.706;23.372;2023-10-31T13:04:03;4.75;;;3.92;;
6937;SDS011;40040;42.706;23.372;2023-10-31T13:06:31;4.43;;;4.03;;
6937;SDS011;40040;42.706;23.372;2023-10-31T13:08:58;4.30;;;3.95;;
6937;SDS011;40040;42.706;23.372;2023-10-31T13:11:28;4.80;;;4.40;;
6937;SDS011;40040;42.706;23.372;2023-10-31T13:13:56;5.07;;;4.50;;
6937;SDS011;40040;42.706;23.372;2023-10-31T13:16:23;5.75;;;4.22;;
6937;SDS011;40040;42.706;23.372;2023-10-31T13:18:51;6.38;;;4.50;;
6937;SDS011;40040;42.706;23.372;2023-10-31T13:21:20;6.55;;;4.82;;
6937;SDS011;40040;42.706;23.372;2023-10-31T13:23:46;6.20;;;4.22;;
6937;SDS011;40040;42.706;23.372;2023-10-31T13:26:13;7.72;;;4.90;;
6937;SDS011;40040;42.706;23.372;2023-10-31T13:28:40;7.10;;;4.25;;
6937;SDS011;40040;42.706;23.372;2023-10-31T13:31:07;10.70;;;4.32;;
6937;SDS011;40040;42.706;23.372;2023-10-31T13:33:36;7.20;;;4.82;;
6937;SDS011;40040;42.706;23.372;2023-10-31T13:36:03;10.13;;;5.00;;
6937;SDS011;40040;42.706;23.372;2023-10-31T13:38:32;10.18;;;6.05;;
6937;SDS011;40040;42.706;23.372;2023-10-31T13:41:01;9.38;;;5.18;;
6937;SDS011;40040;42.706;23.372;2023-10-31T13:43:27;6.18;;;5.18;;
6937;SDS011;40040;42.706;23.372;2023-10-31T13:45:54;5.28;;;4.70;;
6937;SDS011;40040;42.706;23.372;2023-10-31T13:48:21;4.82;;;4.30;;
6937;SDS011;40040;42.706;23.372;2023-10-31T13:50:48;7.70;;;4.80;;
6937;SDS011;40040;42.706;23.372;2023-10-31T13:53:15;5.43;;;4.53;;
6937;SDS011;40040;42.706;23.372;2023-10-31T13:55:43;4.55;;;4.10;;
6937;SDS011;40040;42.706;23.372;2023-10-31T13:58:13;5.95;;;4.70;;
6937;SDS011;40040;42.706;23.372;2023-10-31T14:00:39;7.60;;;4.65;;
6937;SDS011;40040;42.706;23.372;2023-10-31T14:03:06;6.40;;;4.80;;
6937;SDS011;40040;42.706;23.372;2023-10-31T14:05:33;7.70;;;4.82;;
6937;SDS011;40040;42.706;23.372;2023-10-31T14:08:00;6.38;;;4.85;;
6937;SDS011;40040;42.706;23.372;2023-10-31T14:10:27;6.70;;;5.13;;
6937;SDS011;40040;42.706;23.372;2023-10-31T14:12:57;10.73;;;5.32;;
6937;SDS011;40040;42.706;23.372;2023-10-31T14:15:24;9.00;;;5.10;;
6937;SDS011;40040;42.706;23.372;2023-10-31T14:17:51;9.55;;;5.78;;
6937;SDS011;40040;42.706;23.372;2023-10-31T14:20:18;10.50;;;5.63;;
6937;SDS011;40040;42.706;23.372;2023-10-31T14:22:48;10.07;;;5.32;;
6937;SDS011;40040;42.706;23.372;2023-10-31T14:25:15;11.73;;;5.35;;
6937;SDS011;40040;42.706;23.372;2023-10-31T14:27:42;8.07;;;5.28;;
6937;SDS011;40040;42.706;23.372;2023-10-31T14:30:11;10.05;;;5.40;;
6937;SDS011;40040;42.706;23.372;2023-10-31T14:32:39;11.02;;;5.30;;
6937;SDS011;40040;42.706;23.372;2023-10-31T14:35:06;11.00;;;5.03;;
6937;SDS011;40040;42.706;23.372;2023-10-31T14:37:33;12.68;;;5.85;;
6937;SDS011;40040;42.706;23.372;2023-10-31T14:40:01;12.70;;;5.78;;